Terminal Aerodrome Forecast
Issued by NWS

Home | Current Version | Previous Version | Graphics & Text | Print | Product List | Glossary On
Versions: 1 2 3 4 5 6 7 8 9 10 11 12 13 14 15 16 17
076
FTUS43 KGRB 271128
TAFAUW
TAF
KAUW 271128Z 2712/2812 33009KT 4SM RA SCT005 OVC010
      TEMPO 2712/2714 2SM -RASN BR BKN005
     FM271400 31010G18KT 3SM -RASN OVC008
     FM271600 29012G20KT 5SM -SNDZ OVC011
     FM272000 27011G19KT P6SM OVC016
     FM280300 26008KT P6SM BKN016
     FM280800 26006KT P6SM SCT022=

USA.gov is the U.S. government's official web portal to all federal, state and local government web resources and services.